Map Display - LFMN to EGSS
(last flight recorded 22-04-2019, 17:52 - Adrian Smith)

Aircraft Weights    Units : Maximums
Passengers :   100  
Cargo : kg 3,834 kg
Suggested Fuel Load : kg 8,326 kg
 
     
 
Dry Operating : 24,800 kg    
Total Payload : 0 kg 11,715 kg
 
Take Off : 30,846 kg 44,225 kg
 
Expected Landing : 27,172 kg 38,329 kg

Stuart Sutton-Young,  B463 ,  G-BRAB,  .

Route Distance Previous
Flights
Average
Duration
Average
Fuel Flow
Average
Fuel Use
LFMN - Nice/Cote d`Azur, France
EGSS - Stansted, London
569 nm 2 01:54 1,977 kg/h 3,674 kg

Current weather :-
2019/04/23 09:24
TAF LFMN 230800Z 2309/2415 08015KT 9999 BKN040
TEMPO 2309/2321 5000 SHRA BKN020 SCT025TCU PROB40
TEMPO 2309/2317 4000 TSRA BKN014 SCT020CB PROB40
TEMPO 2321/2415 01012KT SHRA BKN020 SCT025TCU PROB30
TEMPO 2412/2415 4000 TSRA SCT020CB
2019/04/23 06:09
TAF EGSS 230500Z 2306/2412 08008KT CAVOK PROB30 2306/2307 8000 PROB40 2400/2408 8000
BECMG 2409/2412 16012KT PROB30
TEMPO 2411/2412 6000 SHRA BKN013 BKN025CB

Back to Virtual Airline